Terminal Aerodrome Forecast
Issued by NWS

Home | Current Version | Previous Version | Text Only | Print | Product List | Glossary On
Versions: 1 2 3 4 5 6 7 8 9 10 11 12 13 14 15
000
FTUS46 KLOX 190408 AAB
TAFSBP
TAF AMD
KSBP 190408Z 1904/1924 31018G26KT P6SM SCT015 BKN035
     FM190800 33010KT P6SM -SHRA OVC020
     FM191700 32010KT P6SM VCSH BKN030
     FM192000 32018G26KT P6SM SCT030=

USA.gov is the U.S. government's official web portal to all federal, state and local government web resources and services.